Main page
METAR-TAF:

METAR-TAF

Airports :

Kaunas Airport

Kaunas, Lithuania

latitude: 54-54N, longitude: 023-55-12E, elevation: 77 m

Current weather observation

The report was made 12 minutes ago, at 02:50 UTC
Wind 2 kt from the East
Temperature 15°C
Humidity 77%
Pressure 1021 hPa
Visibility 10 km or more
no clouds below 1500 m and no cumulonimbus

METAR: EYKA 190250Z 09002KT CAVOK 15/11 Q1021

Time: 06:02 (03:02 UTC)

Forecast

The report was made 3 hours and 57 minutes ago, at 23:05 UTC
Forecast valid from 19 at 00 UTC to 19 at 24 UTC
Wind 6 kt from the South/Southeast
Visibility 10 km or more
no clouds below 1500 m and no cumulonimbus

TAF: EYKA 182305Z 1900/1924 15006KT CAVOK

Weather observations and forecasts of more than 4000 airports (METAR and TAF reports).

The available stations are represented by yellow and red dots on the map.

Hover mouse over dot to see the name of the station.

Then click to see weather observations and forecasts.

To change the map : click on the green buttons with a black cross to zoom in, on the green button with a dash to zoom out, or on the green arrows for adjacent maps.


METAR-TAF: